Arvada, CO (80001)

3:35 PM MDT on June 03, 2015 (GMT -0600)
Glen Ellen | | Change Station
CLOSE
Current Station
Personal Weather Station
Location: Arvada, CO
Elevation: 5377 ft
Nearby Weather Stations
Active Advisory: Tornado Watch

Elev 5377 ft 39.80 °N, 105.09 °W | Updated 4 seconds ago

Mostly Cloudy
Mostly Cloudy
75.4 °F
Feels Like 78 °F
N
0.0
Wind Variable Wind from North
Gusts 0.0 mph

Today
High -- | Low -- °F
--% Chance of Precip.
Yesterday
High -- | Low -- °F
Precip. -- in
5:33 AM 8:23 PM
Full, 98% visible
Pressure 30.04 in
Visibility 15.0 miles
Clouds Scattered Clouds 3500 ft
Mostly Cloudy 7000 ft
Heat Index 78 °F
Dew Point 56 °F
Humidity 50%
Rainfall 0.00 in
Snow Depth Not available.
UV 6 out of 12
Pollen 7.80 out of 12
Air Quality Not available.
Flu Activity Sporadic
METAR KBJC 032045Z 11006KT 15SM SCT035 BKN070 22/12 A3004

More Conditions Fewer Conditions

Pressure 30.04 in
Visibility 15.0 miles
Clouds Scattered Clouds 3500 ft
Mostly Cloudy 7000 ft
Heat Index 78 °F
Dew Point 56 °F
Humidity 50%
Rainfall 0.00 in
Snow Depth Not available.
UV 6 out of 12
Pollen 7.80 out of 12
Air Quality Not available.
Flu Activity Sporadic
METAR KBJC 032045Z 11006KT 15SM SCT035 BKN070 22/12 A3004

More Conditions Fewer Conditions

10-Day Weather Forecast

×

Almanac

Astronomy

Jun. 03, 2015 Rise Set
Actual Time
Civil Twilight
Nautical Twilight
Astronomical Twilight
Moon
Length of Visible Light
Length of Day
Tomorrow will be .
, % of the Moon is Illuminated

Today's Extremes

State Highs State Lows

Community

WunderPhotos

Upload Photos

1,826,287 photos uploaded!

WunderBlogs® & News

Nearby

Air Quality

  Air Quality AQ Index Pollutant
Not available.

Snow Depth

Station Depth Elevation

Earthquake Activity

City Distance Mag. Time & Date
Minimum magnitude displayed is 2.5.

Coastal Water Temperatures

Place Temperature

Stations

Nearby Weather Stations

Station Location Temp. Windchill Dew Point Humidity Wind Precip. Elev Updated Type
                   
Tornado Watch
Statement as of 3:24 PM MDT on June 03, 2015

Tornado Watch 251 remains in effect until 900 PM MDT for the
following locations


Co
. Colorado counties included are

Adams Arapahoe Boulder
Broomfield Denver Douglas
Elbert El Paso Jefferson
Larimer Morgan Weld